James L. Oberstar — WDC6154 — position and weather

sailwx.info

Track history (hours):
 
Tides and Currents Weather Stations Pressure Air Temp Water Temp Dewpoint Dewpoint Depression Visibility Wind Speed Wind Dir Waves Ship Positions

James L. Oberstar

Owner: Destin Trading Corporation, harahan, LA. More information available from US FCC via Universal Licensing System and Coast Guard Vessel Documentation Center.

Last reported at 2017-Nov-15 18:12 UTC. Time now 2017-Nov-21 19:17 UTC.
Position N 29°44' W 095°03'.

Length 26 m; draft 3 m.

Type: Towing. MMSI: 367052120.

Date/timePositionNaut miles runAvg speedWind from/ knotsBaromVisibWave heightAir tempDewpointWater temp
2017-Nov-15 18:12N 29°44' W 095°03'2 6.4
2017-Nov-15 17:55N 29°43' W 095°01'2 5.9
2017-Nov-15 17:30N 29°41' W 094°59'3 5.9
2017-Nov-15 17:00N 29°39' W 094°58'4 7.5
2017-Nov-15 16:30N 29°35' W 094°56'  
2017-Nov-13 01:57N 29°46' W 095°05'3 5.4
2017-Nov-13 01:23N 29°44' W 095°08'2 5.1
2017-Nov-13 01:00N 29°45' W 095°10'2 4.8
2017-Nov-13 00:30N 29°44' W 095°13'2 4.3
2017-Nov-13 00:00N 29°43' W 095°15'0 0.3
2017-Nov-12 23:30N 29°43' W 095°15'0 0.0
2017-Nov-12 22:59N 29°43' W 095°15'0 0.0
2017-Nov-12 22:30N 29°43' W 095°15'0 0.3
2017-Nov-12 21:59N 29°43' W 095°15'0 0.1
2017-Nov-12 21:20N 29°43' W 095°15'0 0.2
2017-Nov-12 21:00N 29°43' W 095°15'0 0.1
2017-Nov-12 20:30N 29°43' W 095°15'0 0.0
2017-Nov-12 19:58N 29°43' W 095°15'0 0.0
2017-Nov-12 19:30N 29°43' W 095°15'0 0.0
2017-Nov-12 18:59N 29°43' W 095°15'0 0.0
2017-Nov-12 18:25N 29°43' W 095°15'0 0.0
2017-Nov-12 18:00N 29°43' W 095°15'0 0.0
2017-Nov-12 17:28N 29°43' W 095°15'0 0.1
2017-Nov-12 16:58N 29°43' W 095°15'0 0.0
2017-Nov-12 16:25N 29°43' W 095°15'0 0.0
2017-Nov-12 15:59N 29°43' W 095°15'0 0.0
2017-Nov-12 15:30N 29°43' W 095°15'0 0.0
2017-Nov-12 15:00N 29°43' W 095°15'0 0.0
2017-Nov-12 14:30N 29°43' W 095°15'0 0.0
2017-Nov-12 13:59N 29°43' W 095°15'0 0.0
2017-Nov-12 13:30N 29°43' W 095°15'0 0.0
2017-Nov-12 13:00N 29°43' W 095°15'0 0.0
2017-Nov-12 12:30N 29°43' W 095°15'0 0.0
2017-Nov-12 12:00N 29°43' W 095°15'0 0.0
2017-Nov-12 11:30N 29°43' W 095°15'0 0.0
2017-Nov-12 11:00N 29°43' W 095°15'0 0.0
2017-Nov-12 10:30N 29°43' W 095°15'0 0.0
2017-Nov-12 10:00N 29°43' W 095°15'0 0.0
2017-Nov-12 09:30N 29°43' W 095°15'0 0.0
2017-Nov-12 09:00N 29°43' W 095°15'0 0.0
2017-Nov-12 08:30N 29°43' W 095°15'0 0.0
2017-Nov-12 08:00N 29°43' W 095°15'0 0.0
2017-Nov-12 07:30N 29°43' W 095°15'0 0.0
2017-Nov-12 07:00N 29°43' W 095°15'0 0.0
2017-Nov-12 06:30N 29°43' W 095°15'0 0.0
2017-Nov-12 06:00N 29°43' W 095°15'0 0.0
2017-Nov-12 05:30N 29°43' W 095°15'0 0.0
2017-Nov-12 05:00N 29°43' W 095°15'0 0.0
2017-Nov-12 04:30N 29°43' W 095°15'0 0.0
2017-Nov-12 04:00N 29°43' W 095°15'0 0.0
2017-Nov-12 03:30N 29°43' W 095°15'0 0.0
2017-Nov-12 03:00N 29°43' W 095°15'0 0.1
2017-Nov-12 02:29N 29°43' W 095°15'0 0.1
2017-Nov-12 01:17N 29°43' W 095°15'0 0.0
2017-Nov-12 00:38N 29°43' W 095°15'0 0.0
2017-Nov-11 16:11N 29°43' W 095°15'0 0.0
2017-Nov-11 15:58N 29°43' W 095°15'0 0.0
2017-Nov-11 15:26N 29°43' W 095°15'0 0.0
2017-Nov-11 14:59N 29°43' W 095°15'0 0.0
2017-Nov-11 14:28N 29°43' W 095°15'0 0.0
2017-Nov-11 13:59N 29°43' W 095°15'0 0.0
2017-Nov-11 13:30N 29°43' W 095°15'0 0.0
2017-Nov-11 12:59N 29°43' W 095°15'0 0.0
2017-Nov-11 12:29N 29°43' W 095°15'0 0.0
2017-Nov-11 11:58N 29°43' W 095°15'0 0.0
2017-Nov-11 11:30N 29°43' W 095°15'0 0.0
2017-Nov-11 11:00N 29°43' W 095°15'0 0.0
2017-Nov-11 10:30N 29°43' W 095°15'0 0.0
2017-Nov-11 09:59N 29°43' W 095°15'0 0.0
2017-Nov-11 09:30N 29°43' W 095°15'0 0.0
2017-Nov-11 08:58N 29°43' W 095°15'0 0.0
2017-Nov-11 08:30N 29°43' W 095°15'0 0.0
2017-Nov-11 07:58N 29°43' W 095°15'0 0.0
2017-Nov-11 07:28N 29°43' W 095°15'0 0.0
2017-Nov-11 07:00N 29°43' W 095°15'0 0.1
2017-Nov-11 06:26N 29°43' W 095°15'0 1.1
2017-Nov-11 06:00N 29°43' W 095°15'3 5.1
2017-Nov-11 05:29N 29°44' W 095°12'3 5.3
2017-Nov-11 05:00N 29°44' W 095°09'0 0.1
2017-Nov-11 00:31N 29°44' W 095°09'0 7.3
2017-Nov-11 00:29N 29°44' W 095°09'4 6.1
2017-Nov-10 23:52N 29°43' W 095°13'1 0.0
2017-Nov-10 04:09N 29°43' W 095°14'0 0.0
2017-Nov-10 03:59N 29°43' W 095°14'1 1.1
2017-Nov-10 03:24N 29°44' W 095°14'2 4.0
2017-Nov-10 03:00N 29°44' W 095°12'3 4.3
2017-Nov-10 02:23N 29°44' W 095°09'5 1.0
2017-Nov-09 21:47N 29°45' W 095°04'1 2.4
2017-Nov-09 21:28N 29°44' W 095°03'2 4.8
2017-Nov-09 20:58N 29°42' W 095°01'2 4.8
2017-Nov-09 20:30N 29°41' W 094°59'3 6.1
2017-Nov-09 20:00N 29°38' W 094°58'3 6.3
2017-Nov-09 19:30N 29°35' W 094°56'  
Track history (hours):
 
Tides and Currents Weather Stations Pressure Air Temp Water Temp Dewpoint Dewpoint Depression Visibility Wind Speed Wind Dir Waves Ship Positions

James L. Oberstar

Owner: Destin Trading Corporation, harahan, LA. More information available from US FCC via Universal Licensing System and Coast Guard Vessel Documentation Center.

Last reported at 2017-Nov-15 18:12 UTC. Time now 2017-Nov-21 19:17 UTC.
Position N 29°44' W 095°03'.

Length 26 m; draft 3 m.

Type: Towing. MMSI: 367052120.

Date/timePositionNaut miles runAvg speedWind from/ knotsBaromVisibWave heightAir tempDewpointWater temp
2017-Nov-15 18:12N 29°44' W 095°03'2 6.4
2017-Nov-15 17:55N 29°43' W 095°01'2 5.9
2017-Nov-15 17:30N 29°41' W 094°59'3 5.9
2017-Nov-15 17:00N 29°39' W 094°58'4 7.5
2017-Nov-15 16:30N 29°35' W 094°56'  
2017-Nov-13 01:57N 29°46' W 095°05'3 5.4
2017-Nov-13 01:23N 29°44' W 095°08'2 5.1
2017-Nov-13 01:00N 29°45' W 095°10'2 4.8
2017-Nov-13 00:30N 29°44' W 095°13'2 4.3
2017-Nov-13 00:00N 29°43' W 095°15'0 0.3
2017-Nov-12 23:30N 29°43' W 095°15'0 0.0
2017-Nov-12 22:59N 29°43' W 095°15'0 0.0
2017-Nov-12 22:30N 29°43' W 095°15'0 0.3
2017-Nov-12 21:59N 29°43' W 095°15'0 0.1
2017-Nov-12 21:20N 29°43' W 095°15'0 0.2
2017-Nov-12 21:00N 29°43' W 095°15'0 0.1
2017-Nov-12 20:30N 29°43' W 095°15'0 0.0
2017-Nov-12 19:58N 29°43' W 095°15'0 0.0
2017-Nov-12 19:30N 29°43' W 095°15'0 0.0
2017-Nov-12 18:59N 29°43' W 095°15'0 0.0
2017-Nov-12 18:25N 29°43' W 095°15'0 0.0
2017-Nov-12 18:00N 29°43' W 095°15'0 0.0
2017-Nov-12 17:28N 29°43' W 095°15'0 0.1
2017-Nov-12 16:58N 29°43' W 095°15'0 0.0
2017-Nov-12 16:25N 29°43' W 095°15'0 0.0
2017-Nov-12 15:59N 29°43' W 095°15'0 0.0
2017-Nov-12 15:30N 29°43' W 095°15'0 0.0
2017-Nov-12 15:00N 29°43' W 095°15'0 0.0
2017-Nov-12 14:30N 29°43' W 095°15'0 0.0
2017-Nov-12 13:59N 29°43' W 095°15'0 0.0
2017-Nov-12 13:30N 29°43' W 095°15'0 0.0
2017-Nov-12 13:00N 29°43' W 095°15'0 0.0
2017-Nov-12 12:30N 29°43' W 095°15'0 0.0
2017-Nov-12 12:00N 29°43' W 095°15'0 0.0
2017-Nov-12 11:30N 29°43' W 095°15'0 0.0
2017-Nov-12 11:00N 29°43' W 095°15'0 0.0
2017-Nov-12 10:30N 29°43' W 095°15'0 0.0
2017-Nov-12 10:00N 29°43' W 095°15'0 0.0
2017-Nov-12 09:30N 29°43' W 095°15'0 0.0
2017-Nov-12 09:00N 29°43' W 095°15'0 0.0
2017-Nov-12 08:30N 29°43' W 095°15'0 0.0
2017-Nov-12 08:00N 29°43' W 095°15'0 0.0
2017-Nov-12 07:30N 29°43' W 095°15'0 0.0
2017-Nov-12 07:00N 29°43' W 095°15'0 0.0
2017-Nov-12 06:30N 29°43' W 095°15'0 0.0
2017-Nov-12 06:00N 29°43' W 095°15'0 0.0
2017-Nov-12 05:30N 29°43' W 095°15'0 0.0
2017-Nov-12 05:00N 29°43' W 095°15'0 0.0
2017-Nov-12 04:30N 29°43' W 095°15'0 0.0
2017-Nov-12 04:00N 29°43' W 095°15'0 0.0
2017-Nov-12 03:30N 29°43' W 095°15'0 0.0
2017-Nov-12 03:00N 29°43' W 095°15'0 0.1
2017-Nov-12 02:29N 29°43' W 095°15'0 0.1
2017-Nov-12 01:17N 29°43' W 095°15'0 0.0
2017-Nov-12 00:38N 29°43' W 095°15'0 0.0
2017-Nov-11 16:11N 29°43' W 095°15'0 0.0
2017-Nov-11 15:58N 29°43' W 095°15'0 0.0
2017-Nov-11 15:26N 29°43' W 095°15'0 0.0
2017-Nov-11 14:59N 29°43' W 095°15'0 0.0
2017-Nov-11 14:28N 29°43' W 095°15'0 0.0
2017-Nov-11 13:59N 29°43' W 095°15'0 0.0
2017-Nov-11 13:30N 29°43' W 095°15'0 0.0
2017-Nov-11 12:59N 29°43' W 095°15'0 0.0
2017-Nov-11 12:29N 29°43' W 095°15'0 0.0
2017-Nov-11 11:58N 29°43' W 095°15'0 0.0
2017-Nov-11 11:30N 29°43' W 095°15'0 0.0
2017-Nov-11 11:00N 29°43' W 095°15'0 0.0
2017-Nov-11 10:30N 29°43' W 095°15'0 0.0
2017-Nov-11 09:59N 29°43' W 095°15'0 0.0
2017-Nov-11 09:30N 29°43' W 095°15'0 0.0
2017-Nov-11 08:58N 29°43' W 095°15'0 0.0
2017-Nov-11 08:30N 29°43' W 095°15'0 0.0
2017-Nov-11 07:58N 29°43' W 095°15'0 0.0
2017-Nov-11 07:28N 29°43' W 095°15'0 0.0
2017-Nov-11 07:00N 29°43' W 095°15'0 0.1
2017-Nov-11 06:26N 29°43' W 095°15'0 1.1
2017-Nov-11 06:00N 29°43' W 095°15'3 5.1
2017-Nov-11 05:29N 29°44' W 095°12'3 5.3
2017-Nov-11 05:00N 29°44' W 095°09'0 0.1
2017-Nov-11 00:31N 29°44' W 095°09'0 7.3
2017-Nov-11 00:29N 29°44' W 095°09'4 6.1
2017-Nov-10 23:52N 29°43' W 095°13'1 0.0
2017-Nov-10 04:09N 29°43' W 095°14'0 0.0
2017-Nov-10 03:59N 29°43' W 095°14'1 1.1
2017-Nov-10 03:24N 29°44' W 095°14'2 4.0
2017-Nov-10 03:00N 29°44' W 095°12'3 4.3
2017-Nov-10 02:23N 29°44' W 095°09'5 1.0
2017-Nov-09 21:47N 29°45' W 095°04'1 2.4
2017-Nov-09 21:28N 29°44' W 095°03'2 4.8
2017-Nov-09 20:58N 29°42' W 095°01'2 4.8
2017-Nov-09 20:30N 29°41' W 094°59'3 6.1
2017-Nov-09 20:00N 29°38' W 094°58'3 6.3
2017-Nov-09 19:30N 29°35' W 094°56'  

Dump ship's entire track history